Ave Maria, FL

10:38 AM EST on December 10, 2016 (GMT -0500)
Ave Maria | | Change Station

Elev 61 ft 26.34 °N, 81.44 °W | Updated 39 days ago

Mostly Cloudy
Mostly Cloudy
65.0 °F
Feels Like 65.0 °F
N
0.0
Wind Variable Wind from SW
Gusts 0.0 mph

Today
High -- | Low -- °F
--% Chance of Precip.
Yesterday
High -- | Low -- °F
Precip. -- in
Pressure 30.31 in
Visibility 10.0 miles
Clouds Mostly Cloudy 8000 ft
Dew Point 62.0 °F
Humidity 90%
Rainfall in
Snow Depth Not available.
7:03 AM 5:34 PM
Waxing Gibbous, 84% visible
METAR KRSW 101453Z COR 03011KT 10SM BKN080 17/11 A3031 RMK AO2 SLP262 T01670111 51013
Pressure 30.31 in
Visibility 10.0 miles
Clouds Mostly Cloudy 8000 ft
Dew Point 62.0 °F
Humidity 90%
Rainfall in
Snow Depth Not available.
7:03 AM 5:34 PM
Waxing Gibbous, 84% visible
METAR KRSW 101453Z COR 03011KT 10SM BKN080 17/11 A3031 RMK AO2 SLP262 T01670111 51013

10-Day Weather Forecast

Almanac

Astronomy

Dec. 10, 2016 Rise Set
Actual Time
Civil Twilight
Nautical Twilight
Astronomical Twilight
Moon
Length of Visible Light
Length of Day
Tomorrow will be .
, % of the Moon is Illuminated

Today's Extremes

State Highs State Lows

Community

WunderPhotos

Upload Photos

1,956,549 photos uploaded!

WunderBlog® & News

Nearby

Air Quality

  Air Quality AQ Index Pollutant
Not available.

Snow Depth

Station Depth Elevation

Earthquake Activity

City Distance Mag. Time & Date
Minimum magnitude displayed is 2.5.

Coastal Water Temperatures

Place Temperature

Stations

Nearby Weather Stations

Station Location Temp. Windchill Dew Point Humidity Wind Precip. Elev Updated Type
                   

Watches & Warnings

There are currently no watches in effect.